Transocean 712 — YJTL5 — position and weather

sailwx.info

Track history (hours):
 
Tides and Currents Weather Stations Pressure Air Temp Water Temp Dewpoint Dewpoint Depression Visibility Wind Speed Wind Dir Waves Ship Positions

Transocean 712

Last reported at 2018-Apr-20 04:00 UTC. Time now 2018-Apr-20 05:04 UTC.
Position N 61°18' E 001°30'.

Length 90 m; draft 10.5 m.

Type: Ship. MMSI: 577181000.

Wind from 230

Waves 1.7 meters (6 feet)

Air temperature 9.0 ° C
Visibility: greater than 10.8 NM
Dewpoint 6.0 ° C

Date/timePositionNaut miles runAvg speedWind from/ knotsBaromVisibWave heightAir tempDewpointWater temp
2018-Apr-20 04:00N 61°18' E 001°30'0 0.0 230 10.8 1.7 9.0 6.0
2018-Apr-20 03:00N 61°18' E 001°30'0 0.0 220 5.4 1.7 8.8 5.8
2018-Apr-20 02:00N 61°18' E 001°30'0 0.0 230 10.8 1.7 9.3 6.0
2018-Apr-20 01:00N 61°18' E 001°30'0 0.0 220 10.8 1.9 9.2 6.5
2018-Apr-20 00:00N 61°18' E 001°30'0 0.0 220 5.4 2.0 8.8 6.3
2018-Apr-19 23:00N 61°18' E 001°30'0 0.0 210 5.4 2.0 9.0 6.4
2018-Apr-19 22:00N 61°18' E 001°30'0 0.0 230 5.4 2.2 9.0 6.3
2018-Apr-19 21:00N 61°18' E 001°30'0 0.0 220 5.4 2.0 8.8 6.2
2018-Apr-19 20:00N 61°18' E 001°30'0 0.0 220 5.4 2.0 8.5 6.1
2018-Apr-19 19:00N 61°18' E 001°30'0 0.0 230 5.4 2.1 8.9 6.4
2018-Apr-19 18:00N 61°18' E 001°30'0 0.0 230 5.4 2.2 8.9 6.4
2018-Apr-19 17:00N 61°18' E 001°30'0 0.0 220 2.2 2.0 8.6 6.1
2018-Apr-19 16:00N 61°18' E 001°30'0 0.0 220 2.2 2.2 8.6 6.2
2018-Apr-19 15:00N 61°18' E 001°30'0 0.0 200 2.2 2.4 8.6 6.2
2018-Apr-19 14:00N 61°18' E 001°30'0 0.0 200 2.2 2.2 8.9 6.2
2018-Apr-19 13:00N 61°18' E 001°30'0 0.0 200 2.2 2.5 9.0 5.9
2018-Apr-19 12:00N 61°18' E 001°30'0 0.0 200 2.2 2.7 9.4 5.8
2018-Apr-19 11:00N 61°18' E 001°30'0 0.0 190 2.2 2.8 9.2 5.9
2018-Apr-19 10:00N 61°18' E 001°30'0 0.0 180 2.2 2.6 9.3 6.1
2018-Apr-19 09:00N 61°18' E 001°30'0 0.0 180 2.2 2.8 9.4 6.3
2018-Apr-19 08:00N 61°18' E 001°30'0 0.0 180 2.2 2.6 9.6 6.6
2018-Apr-19 07:00N 61°18' E 001°30'0 0.0 170 2.2 2.510.1 6.8
2018-Apr-19 06:00N 61°18' E 001°30'0 0.0 160 2.2 2.210.4 7.2
2018-Apr-19 05:00N 61°18' E 001°30'0 0.0 160 2.2 2.210.0 6.8
2018-Apr-19 04:00N 61°18' E 001°30'0 0.0 160 5.4 2.1 9.7 6.7
2018-Apr-19 03:00N 61°18' E 001°30'0 0.0 170 2.2 2.2 9.2 6.6
2018-Apr-19 02:00N 61°18' E 001°30'0 0.0 170 2.2 2.5 8.9 6.5
2018-Apr-19 01:00N 61°18' E 001°30'0 0.0 170 2.2 2.5 8.7 6.4
2018-Apr-19 00:00N 61°18' E 001°30'0 0.0 170 2.2 2.6 8.6 6.1
2018-Apr-18 23:00N 61°18' E 001°30'0 0.0 160 2.2 2.7 8.8 6.3
2018-Apr-18 22:00N 61°18' E 001°30'0 0.0 170 2.2 2.7 8.5 6.2
2018-Apr-18 21:00N 61°18' E 001°30'0 0.0 170 5.4 2.6 8.8 5.9
2018-Apr-18 20:00N 61°18' E 001°30'0 0.0 160 5.4 3.1 9.0 5.9
2018-Apr-18 19:00N 61°18' E 001°30'0 0.0 170 5.4 2.9 9.0 5.8
2018-Apr-18 18:00N 61°18' E 001°30'0 0.0 170 2.2 2.7 9.0 5.5
2018-Apr-18 17:00N 61°18' E 001°30'0 0.0 180 2.2 2.6 9.0 5.6
2018-Apr-18 16:00N 61°18' E 001°30'0 0.0 180 5.4 2.8 9.1 5.7
2018-Apr-18 15:00N 61°18' E 001°30'0 0.0 180 2.2 2.8 9.4 5.7
2018-Apr-18 14:00N 61°18' E 001°30'0 0.0 190 5.4 3.0 9.3 5.9
2018-Apr-18 13:00N 61°18' E 001°30'0 0.0 190 5.4 2.9 9.1 5.8
2018-Apr-18 12:00N 61°18' E 001°30'0 0.0 180 2.2 2.9 9.2 5.6
2018-Apr-18 11:00N 61°18' E 001°30'0 0.0 190 2.2 2.8 9.7 5.8
2018-Apr-18 10:00N 61°18' E 001°30'0 0.0 200 5.4 3.010.3 6.0
2018-Apr-18 09:00N 61°18' E 001°30'0 0.0 190 2.2 3.0 9.4 5.5
2018-Apr-18 08:00N 61°18' E 001°30'0 0.0 210 5.4 3.0 9.8 6.0
2018-Apr-18 07:00N 61°18' E 001°30'0 0.0 190 2.2 3.2 9.1 5.9
2018-Apr-18 06:00N 61°18' E 001°30'0 0.0 180 2.2 2.9 8.7 6.1
2018-Apr-18 05:00N 61°18' E 001°30'0 0.0 180 2.2 2.9 8.1 5.8
2018-Apr-18 04:00N 61°18' E 001°30'0 0.0 210 2.2 3.1 7.8 5.7
2018-Apr-18 03:00N 61°18' E 001°30'0 0.0 210 2.2 3.2 7.8 5.8
2018-Apr-18 02:00N 61°18' E 001°30'0 0.0 190 2.2 3.2 7.7 5.6
2018-Apr-18 01:00N 61°18' E 001°30'0 0.0 190 2.2 3.2 7.7 5.6
2018-Apr-18 00:00N 61°18' E 001°30'0 0.0 180 2.2 3.2 7.7 5.7
2018-Apr-17 23:00N 61°18' E 001°30'0 0.0 180 2.2 3.4 7.8 5.7
2018-Apr-17 22:00N 61°18' E 001°30'0 0.0 180 2.2 3.4 7.9 5.8
2018-Apr-17 21:00N 61°18' E 001°30'2 2.7 180 2.2 3.2 7.9 5.8
2018-Apr-17 20:17N 61°19' E 001°33'2 6.7
2018-Apr-17 20:00N 61°18' E 001°30'2165.0 170 2.2 3.0 7.9 5.7
2018-Apr-17 19:59N 61°19' E 001°33'0 0.0
2018-Apr-17 19:29N 61°19' E 001°33'2 3.9
2018-Apr-17 19:00N 61°18' E 001°30'0 0.0 170 2.2 3.3 7.8 5.6
2018-Apr-17 18:00N 61°18' E 001°30'0 0.0 160 2.2 3.0 8.0 5.7
2018-Apr-17 17:00N 61°18' E 001°30'0 0.0 160 2.2 3.0 8.0 5.7
2018-Apr-17 16:00N 61°18' E 001°30'0 0.0 160 2.2 2.8 7.9 5.6
2018-Apr-17 15:00N 61°18' E 001°30'0 0.0 160 2.2 2.9 7.9 5.5
2018-Apr-17 14:00N 61°18' E 001°30'0 0.0 150 2.2 2.6 7.8 5.5
2018-Apr-17 13:00N 61°18' E 001°30'0 0.0 150 2.2 2.3 8.0 5.4
2018-Apr-17 12:00N 61°18' E 001°30'0 0.0 150 2.2 2.2 8.0 5.1
2018-Apr-17 11:00N 61°18' E 001°30'0 0.0 150 2.2 1.9 8.1 5.1
2018-Apr-17 10:00N 61°18' E 001°30'0 0.0 140 5.4 1.8 8.3 5.2
2018-Apr-17 09:00N 61°18' E 001°30'0 0.0 140 5.4 1.8 8.0 5.6
2018-Apr-17 08:00N 61°18' E 001°30'0 0.0 140 2.2 1.7 7.5 5.4
2018-Apr-17 07:00N 61°18' E 001°30'0 0.0 150 5.4 1.7 7.2 5.2
2018-Apr-17 06:00N 61°18' E 001°30'0 0.0 150 2.2 1.6 7.0 5.1
2018-Apr-17 05:00N 61°18' E 001°30'0 0.0 150 2.2 1.6 7.1 5.2
2018-Apr-17 04:00N 61°18' E 001°30'0 0.0 160 2.2 1.6 7.4 5.4
2018-Apr-17 03:00N 61°18' E 001°30'0 0.0 160 1.1 1.6 7.3 5.4
2018-Apr-17 02:00N 61°18' E 001°30'0 0.0 150 1.1 1.6 7.6 5.4
2018-Apr-17 01:00N 61°18' E 001°30'0 0.0 160 2.2 1.6 8.1 6.0
2018-Apr-17 00:00N 61°18' E 001°30'0 0.0 160 2.2 1.4 8.4 6.3
2018-Apr-16 23:00N 61°18' E 001°30'0 0.0 150 2.2 1.4 8.3 6.1
2018-Apr-16 22:00N 61°18' E 001°30'0 0.0 150 1.1 1.4 8.2 6.2
2018-Apr-16 21:00N 61°18' E 001°30'0 0.0 150 1.1 1.5 8.1 5.9
2018-Apr-16 20:00N 61°18' E 001°30'0 0.0 150 1.1 1.4 8.1 5.6
2018-Apr-16 19:00N 61°18' E 001°30'0 0.0 140 2.2 1.2 8.6 5.2
2018-Apr-16 18:00N 61°18' E 001°30'0 0.0 140 5.4 1.3 8.7 4.9
2018-Apr-16 17:00N 61°18' E 001°30'0 0.0 140 2.2 1.3 8.9 5.1
2018-Apr-16 16:00N 61°18' E 001°30'0 0.0 140 2.2 1.3 8.4 5.2
2018-Apr-16 15:00N 61°18' E 001°30'0 0.0 150 5.4 1.2 8.4 4.9
2018-Apr-16 14:00N 61°18' E 001°30'0 0.0 150 5.4 1.1 9.0 5.0
2018-Apr-16 13:00N 61°18' E 001°30'0 0.0 160 10.8 1.210.1 4.8
2018-Apr-16 12:00N 61°18' E 001°30'0 0.0 160 10.8 1.1 9.4 4.3
2018-Apr-16 11:00N 61°18' E 001°30'0 0.0 160 5.4 0.9 9.6 4.4
2018-Apr-16 10:00N 61°18' E 001°30'0 0.0 170 5.4 0.9 8.5 4.5
2018-Apr-16 09:00N 61°18' E 001°30'0 0.0 170 2.2 0.8 7.8 4.5
2018-Apr-16 08:00N 61°18' E 001°30'0 0.0 160 1.1 0.8 9.0 6.3
2018-Apr-16 07:00N 61°18' E 001°30'0 0.0 170 2.2 0.7 9.1 5.7
2018-Apr-16 06:00N 61°18' E 001°30'0 0.0 170 5.4 0.7 9.1 5.9
2018-Apr-16 05:00N 61°18' E 001°30'0 0.0 180 5.4 0.7 8.5 4.8
2018-Apr-16 04:00N 61°18' E 001°30'0 0.0 170 5.4 0.7 9.6 4.6
2018-Apr-16 03:00N 61°18' E 001°30'0 0.0 150 2.2 0.7 9.6 4.5
2018-Apr-16 02:00N 61°18' E 001°30'0 0.0 160 5.4 0.7 9.2 5.2
2018-Apr-16 01:00N 61°18' E 001°30'0 0.0 160 5.4 0.7 9.2 5.9
2018-Apr-16 00:00N 61°18' E 001°30'0 0.0 170 10.8 0.7 9.1 5.8
2018-Apr-15 23:00N 61°18' E 001°30'0 0.0 160 10.8 0.7 9.3 6.1
2018-Apr-15 22:00N 61°18' E 001°30'0 0.0 160 10.8 0.7 9.7 5.9
2018-Apr-15 21:00N 61°18' E 001°30'0 0.0 140 10.8 0.7 9.8 5.7
2018-Apr-15 20:00N 61°18' E 001°30'0 0.0 160 10.8 0.8 9.4 5.6
2018-Apr-15 19:00N 61°18' E 001°30'0 0.0 090 10.8 0.8 9.3 5.7
2018-Apr-15 18:00N 61°18' E 001°30'0 0.0 100 10.8 0.8 8.1 5.5
2018-Apr-15 17:00N 61°18' E 001°30'0 0.0 080 10.8 0.8 8.1 5.2
2018-Apr-15 16:00N 61°18' E 001°30'0 0.0 080 10.8 0.9 8.3 4.8
2018-Apr-15 15:00N 61°18' E 001°30'0 0.0 070 10.8 0.8 8.6 4.5
2018-Apr-15 14:00N 61°18' E 001°30'0 0.0 060 10.8 0.9 8.7 4.4
2018-Apr-15 13:00N 61°18' E 001°30'0 0.0 10.8
2018-Apr-15 12:00N 61°18' E 001°30'0 0.0 070 10.8 0.9 9.8 3.8
2018-Apr-15 11:00N 61°18' E 001°30'0 0.0 100 10.8 0.9 9.9 5.3
2018-Apr-15 10:00N 61°18' E 001°30'0 0.0 060 5.4 1.0 7.8 5.0
2018-Apr-15 09:00N 61°18' E 001°30'0 0.0 040 5.4 1.0 7.7 5.2
2018-Apr-15 08:00N 61°18' E 001°30'0 0.0 040 5.4 1.1 7.8 5.1
2018-Apr-15 07:00N 61°18' E 001°30'0 0.0 040 5.4 1.0 7.5 4.9
2018-Apr-15 06:00N 61°18' E 001°30'0 0.0 070 5.4 1.0 7.6 4.6
2018-Apr-15 05:00N 61°18' E 001°30'0 0.0 170 5.4 1.0 7.9 4.0
2018-Apr-15 04:00N 61°18' E 001°30'0 0.0 200 10.8 1.0 8.7 4.4
2018-Apr-15 03:00N 61°18' E 001°30'0 0.0 160 10.8 1.0 8.5 4.1
2018-Apr-15 02:00N 61°18' E 001°30'0 0.0 170 10.8 1.0 8.7 4.2
2018-Apr-15 01:00N 61°18' E 001°30'0 0.0 170 10.8 1.0 8.6 4.4
2018-Apr-15 00:00N 61°18' E 001°30'0 0.0 170 5.4 1.2 8.7 4.1
2018-Apr-14 23:00N 61°18' E 001°30'0 0.0 160 10.8 1.1 8.6 4.2
2018-Apr-14 22:00N 61°18' E 001°30'0 0.0 160 5.4 1.1 8.9 3.8
2018-Apr-14 21:00N 61°18' E 001°30'0 0.0 170 10.8 1.2 9.0 3.7
2018-Apr-14 20:00N 61°18' E 001°30'0 0.0 160 5.4 1.3 9.7 3.7
2018-Apr-14 19:00N 61°18' E 001°30'0 0.0 150 5.4 1.2 9.7 3.8
2018-Apr-14 18:00N 61°18' E 001°30'0 0.0 160 5.4 1.210.0 3.4
2018-Apr-14 17:00N 61°18' E 001°30'0 0.0 160 10.8 1.1 9.7 3.7
2018-Apr-14 16:00N 61°18' E 001°30'0 0.0 160 10.8 1.0 9.8 3.6
2018-Apr-14 15:00N 61°18' E 001°30'0 0.0 180 5.4 1.1 9.4 3.5
2018-Apr-14 14:00N 61°18' E 001°30'0 0.0 170 10.8 1.210.3 4.0
2018-Apr-14 13:00N 61°18' E 001°30'0 0.0 170 10.8 1.210.6 5.4
2018-Apr-14 12:00N 61°18' E 001°30'0 0.0 180 10.8 1.210.4 6.6
2018-Apr-14 11:00N 61°18' E 001°30'0 0.0 180 5.4 1.3 9.8 6.4
2018-Apr-14 10:00N 61°18' E 001°30'0 0.0 130 5.4 1.310.0 6.4
2018-Apr-14 09:00N 61°18' E 001°30'0 0.0 120 10.8 1.410.2 7.0
2018-Apr-14 08:00N 61°18' E 001°30'0 0.0 140 5.4 1.310.1 7.3
2018-Apr-14 07:00N 61°18' E 001°30'0 0.0 140 5.4 1.3 9.5 7.0
2018-Apr-14 06:00N 61°18' E 001°30'0 0.0 150 2.2 1.3 9.2 7.0
2018-Apr-14 05:00N 61°18' E 001°30'0 0.0 110 5.4 1.3 8.9 6.6
2018-Apr-14 04:00N 61°18' E 001°30'0 0.0 130 5.4 1.4 9.3 6.6
2018-Apr-14 03:00N 61°18' E 001°30'0 0.0 140 5.4 1.4 9.7 6.6
2018-Apr-14 02:00N 61°18' E 001°30'0 0.0 150 2.2 1.4 9.2 6.3
2018-Apr-14 01:00N 61°18' E 001°30'0 0.0 160 2.2 1.5 9.3 5.9
2018-Apr-14 00:00N 61°18' E 001°30'0 0.0 130 10.8 1.5 9.6 5.9
2018-Apr-13 23:00N 61°18' E 001°30'0 0.0 130 10.8 1.6 9.3 5.7
2018-Apr-13 22:00N 61°18' E 001°30'0 0.0 140 5.4 1.8 8.9 4.8
2018-Apr-13 21:00N 61°18' E 001°30'0 0.0 120 10.8 1.7 8.9 4.0
2018-Apr-13 20:00N 61°18' E 001°30'0 0.0 090 10.8 1.7 8.0 2.9
2018-Apr-13 19:00N 61°18' E 001°30'0 0.0 090 10.8 1.8 7.9 2.7
2018-Apr-13 18:00N 61°18' E 001°30'0 0.0 080 10.8 1.9 8.0 2.1
2018-Apr-13 17:00N 61°18' E 001°30'0 0.0 080 10.8 1.7 8.1 2.0
2018-Apr-13 16:00N 61°18' E 001°30'0 0.0 070 10.8 1.7 8.1 1.8
2018-Apr-13 15:00N 61°18' E 001°30'0 0.0 070 10.8 2.0 8.2 1.7
2018-Apr-13 14:00N 61°18' E 001°30'0 0.0 080 10.8 1.8 8.2 1.3
2018-Apr-13 13:00N 61°18' E 001°30'0 0.0 080 10.8 1.8 8.0 1.4
2018-Apr-13 12:00N 61°18' E 001°30'0 0.0 080 10.8 1.8 7.9 1.6
2018-Apr-13 11:00N 61°18' E 001°30'0 0.0 080 10.8 1.8 8.0 2.1
2018-Apr-13 10:00N 61°18' E 001°30'0 0.0 080 10.8 1.6 7.6 2.4
2018-Apr-13 09:00N 61°18' E 001°30'0 0.0 080 10.8 1.6 7.8 2.7
2018-Apr-13 08:00N 61°18' E 001°30'0 0.0 080 10.8 1.9 7.9 2.7
2018-Apr-13 07:00N 61°18' E 001°30'0 0.0 080 10.8 1.9 7.5 2.9
2018-Apr-13 06:00N 61°18' E 001°30'0 0.0 080 10.8 1.6 7.3 2.7
2018-Apr-13 05:00N 61°18' E 001°30'0 0.0 080 10.8 1.8 7.0 3.0
2018-Apr-13 04:00N 61°18' E 001°30'0 0.0 080 10.8 1.9 7.3 1.9
2018-Apr-13 03:00N 61°18' E 001°30'0 0.0 070 10.8 1.8 7.3 1.3
2018-Apr-13 02:00N 61°18' E 001°30'0 0.0 070 10.8 1.9 7.2 1.8
2018-Apr-13 01:00N 61°18' E 001°30'0 0.0 080 10.8 2.1 7.2 1.8
2018-Apr-13 00:00N 61°18' E 001°30'0 0.0 070 10.8 2.1 7.1 1.4
2018-Apr-12 23:00N 61°18' E 001°30'0 0.0 070 10.8 1.9 7.1 1.2
2018-Apr-12 22:00N 61°18' E 001°30'0 0.0
2018-Apr-12 21:00N 61°18' E 001°30'0 0.0 070 10.8 1.9 7.3 1.1
2018-Apr-12 20:00N 61°18' E 001°30'0 0.0 080 10.8 1.7 7.4 0.9
2018-Apr-12 19:00N 61°18' E 001°30'0 0.0 070 10.8 1.7 7.5 1.9
2018-Apr-12 18:00N 61°18' E 001°30'0 0.0 080 10.8 1.7 7.7 1.6
2018-Apr-12 17:00N 61°18' E 001°30'0 0.0 060 10.8 1.5 7.9 2.3
2018-Apr-12 16:00N 61°18' E 001°30'0 0.0 090 10.8 1.4 8.0 3.4
2018-Apr-12 15:00N 61°18' E 001°30'0 0.0 070 10.8 1.2 7.8 3.4
2018-Apr-12 14:00N 61°18' E 001°30'0 0.0 080 10.8 1.0 7.9 2.9
2018-Apr-12 13:00N 61°18' E 001°30'0 0.0 090 10.8 1.0 8.8 1.7
2018-Apr-12 12:00N 61°18' E 001°30'0 0.0 080 10.8 1.0 8.0 2.6
2018-Apr-12 11:00N 61°18' E 001°30'0 0.0 150 10.8 1.010.1 3.3
2018-Apr-12 10:00N 61°18' E 001°30'0 0.0 190 10.8 1.0 9.2 3.0
2018-Apr-12 09:00N 61°18' E 001°30'0 0.0 180 10.8 1.1 9.3 3.0
2018-Apr-12 08:00N 61°18' E 001°30'0 0.0 160 10.8 1.1 9.9 3.5
2018-Apr-12 07:00N 61°18' E 001°30'0 0.0 150 10.8 1.1 9.8 3.9
2018-Apr-12 06:00N 61°18' E 001°30'0 0.0 160 10.8 1.0 8.4 4.0
2018-Apr-12 05:00N 61°18' E 001°30'0 0.0 180 10.8 1.1 6.9 3.4
2018-Apr-12 04:00N 61°18' E 001°30'0 0.0 200 10.8 1.2 6.2 3.1
2018-Apr-12 03:00N 61°18' E 001°30'0 0.0 180 10.8 1.2 6.3 2.7
2018-Apr-12 02:00N 61°18' E 001°30'0 0.0 160 10.8 1.2 6.8 2.8
2018-Apr-12 01:00N 61°18' E 001°30'0 0.0 120 10.8 1.2 6.7 2.5
2018-Apr-12 00:00N 61°18' E 001°30'0 0.0 100 10.8 1.2 6.3 2.3
2018-Apr-11 23:00N 61°18' E 001°30'0 0.0 090 10.8 1.3 6.3 2.0
2018-Apr-11 22:00N 61°18' E 001°30'0 0.0 080 10.8 1.4 6.4 1.6
2018-Apr-11 21:00N 61°18' E 001°30'0 0.0 080 10.8 1.3 6.4 1.4
2018-Apr-11 20:00N 61°18' E 001°30'0 0.0 080 10.8 1.5 6.4 1.6
2018-Apr-11 19:00N 61°18' E 001°30'0 0.0 060 10.8 1.5 6.7 2.1
2018-Apr-11 18:00N 61°18' E 001°30'0 0.0 070 10.8 1.4 6.9 1.6
2018-Apr-11 17:00N 61°18' E 001°30'0 0.0 080 10.8 1.4 7.0 0.4
2018-Apr-11 16:00N 61°18' E 001°30'0 0.0 080 10.8 1.4 7.0-0.6
2018-Apr-11 15:00N 61°18' E 001°30'0 0.0 070 10.8 1.7 7.1-1.1
2018-Apr-11 14:00N 61°18' E 001°30'0 0.0 100 10.8 1.5 7.4 0.3
2018-Apr-11 13:00N 61°18' E 001°30'0 0.0 090 10.8 1.5 7.8 0.7
2018-Apr-11 12:00N 61°18' E 001°30'0 0.0 090 10.8 1.7 7.4 0.9
2018-Apr-11 11:00N 61°18' E 001°30'0 0.0 080 10.8 1.7 7.4 1.7
2018-Apr-11 10:00N 61°18' E 001°30'0 0.0 080 10.8 1.9 7.0 3.3
2018-Apr-11 09:00N 61°18' E 001°30'0 0.0 080 10.8 1.7 6.6 3.6
2018-Apr-11 08:00N 61°18' E 001°30'0 0.0 080 10.8 1.8 6.6 3.5
2018-Apr-11 07:00N 61°18' E 001°30'0 0.0 080 10.8 1.9 6.6 3.4
2018-Apr-11 06:00N 61°18' E 001°30'0 0.0 090 10.8 2.1 6.6 3.3
2018-Apr-11 05:00N 61°18' E 001°30'0 0.0 090 10.8 2.1 6.3 3.0
2018-Apr-11 04:00N 61°18' E 001°30'0 0.0 090 10.8 1.9 6.1 2.8
2018-Apr-11 03:00N 61°18' E 001°30'0 0.0 090 10.8 2.0 6.1 2.6
2018-Apr-11 02:00N 61°18' E 001°30'0 0.0 090 10.8 1.9 6.0 2.1
2018-Apr-11 01:00N 61°18' E 001°30'0 0.0 100 10.8 1.8 6.1 1.7
2018-Apr-11 00:00N 61°18' E 001°30'0 0.0 120 10.8 1.8 6.2 1.7
2018-Apr-10 23:00N 61°18' E 001°30'0 0.0 130 10.8 1.9 6.0 1.5
2018-Apr-10 22:00N 61°18' E 001°30'0 0.0 120 10.8 2.1 6.0 1.6
2018-Apr-10 21:00N 61°18' E 001°30'0 0.0 080 10.8 1.8 5.8 1.4
2018-Apr-10 20:00N 61°18' E 001°30'0 0.0 140 10.8 1.6 5.9 1.6
2018-Apr-10 19:00N 61°18' E 001°30'0 0.0 170 10.8 1.6 6.3 1.5
2018-Apr-10 18:00N 61°18' E 001°30'0 0.0 180 10.8 1.6 6.5 1.5
2018-Apr-10 17:00N 61°18' E 001°30'0 0.0 190 10.8 1.6 6.7 2.0
2018-Apr-10 16:00N 61°18' E 001°30'0 0.0 190 10.8 1.5 6.9 2.7
2018-Apr-10 15:00N 61°18' E 001°30'0 0.0 180 10.8 1.5 6.7 3.0
2018-Apr-10 14:00N 61°18' E 001°30'0 0.0 200 5.4 1.4 6.7 3.0
2018-Apr-10 13:00N 61°18' E 001°30'0 0.0 190 10.8 1.5 7.3 2.5
2018-Apr-10 12:00N 61°18' E 001°30'0 0.0 180 10.8 1.6 7.4 2.0
2018-Apr-10 11:00N 61°18' E 001°30'0 0.0 190 10.8 1.6 7.6 2.0
2018-Apr-10 10:00N 61°18' E 001°30'0 0.0 180 10.8 1.8 7.3 2.4
2018-Apr-10 09:00N 61°18' E 001°30'   180 10.8 1.8 7.2 3.1
Track history (hours):
 
Tides and Currents Weather Stations Pressure Air Temp Water Temp Dewpoint Dewpoint Depression Visibility Wind Speed Wind Dir Waves Ship Positions

Transocean 712

Last reported at 2018-Apr-20 04:00 UTC. Time now 2018-Apr-20 05:04 UTC.
Position N 61°18' E 001°30'.

Length 90 m; draft 10.5 m.

Type: Ship. MMSI: 577181000.

Wind from 230

Waves 1.7 meters (6 feet)

Air temperature 9.0 ° C
Visibility: greater than 10.8 NM
Dewpoint 6.0 ° C

Date/timePositionNaut miles runAvg speedWind from/ knotsBaromVisibWave heightAir tempDewpointWater temp
2018-Apr-20 04:00N 61°18' E 001°30'0 0.0 230 10.8 1.7 9.0 6.0
2018-Apr-20 03:00N 61°18' E 001°30'0 0.0 220 5.4 1.7 8.8 5.8
2018-Apr-20 02:00N 61°18' E 001°30'0 0.0 230 10.8 1.7 9.3 6.0
2018-Apr-20 01:00N 61°18' E 001°30'0 0.0 220 10.8 1.9 9.2 6.5
2018-Apr-20 00:00N 61°18' E 001°30'0 0.0 220 5.4 2.0 8.8 6.3
2018-Apr-19 23:00N 61°18' E 001°30'0 0.0 210 5.4 2.0 9.0 6.4
2018-Apr-19 22:00N 61°18' E 001°30'0 0.0 230 5.4 2.2 9.0 6.3
2018-Apr-19 21:00N 61°18' E 001°30'0 0.0 220 5.4 2.0 8.8 6.2
2018-Apr-19 20:00N 61°18' E 001°30'0 0.0 220 5.4 2.0 8.5 6.1
2018-Apr-19 19:00N 61°18' E 001°30'0 0.0 230 5.4 2.1 8.9 6.4
2018-Apr-19 18:00N 61°18' E 001°30'0 0.0 230 5.4 2.2 8.9 6.4
2018-Apr-19 17:00N 61°18' E 001°30'0 0.0 220 2.2 2.0 8.6 6.1
2018-Apr-19 16:00N 61°18' E 001°30'0 0.0 220 2.2 2.2 8.6 6.2
2018-Apr-19 15:00N 61°18' E 001°30'0 0.0 200 2.2 2.4 8.6 6.2
2018-Apr-19 14:00N 61°18' E 001°30'0 0.0 200 2.2 2.2 8.9 6.2
2018-Apr-19 13:00N 61°18' E 001°30'0 0.0 200 2.2 2.5 9.0 5.9
2018-Apr-19 12:00N 61°18' E 001°30'0 0.0 200 2.2 2.7 9.4 5.8
2018-Apr-19 11:00N 61°18' E 001°30'0 0.0 190 2.2 2.8 9.2 5.9
2018-Apr-19 10:00N 61°18' E 001°30'0 0.0 180 2.2 2.6 9.3 6.1
2018-Apr-19 09:00N 61°18' E 001°30'0 0.0 180 2.2 2.8 9.4 6.3
2018-Apr-19 08:00N 61°18' E 001°30'0 0.0 180 2.2 2.6 9.6 6.6
2018-Apr-19 07:00N 61°18' E 001°30'0 0.0 170 2.2 2.510.1 6.8
2018-Apr-19 06:00N 61°18' E 001°30'0 0.0 160 2.2 2.210.4 7.2
2018-Apr-19 05:00N 61°18' E 001°30'0 0.0 160 2.2 2.210.0 6.8
2018-Apr-19 04:00N 61°18' E 001°30'0 0.0 160 5.4 2.1 9.7 6.7
2018-Apr-19 03:00N 61°18' E 001°30'0 0.0 170 2.2 2.2 9.2 6.6
2018-Apr-19 02:00N 61°18' E 001°30'0 0.0 170 2.2 2.5 8.9 6.5
2018-Apr-19 01:00N 61°18' E 001°30'0 0.0 170 2.2 2.5 8.7 6.4
2018-Apr-19 00:00N 61°18' E 001°30'0 0.0 170 2.2 2.6 8.6 6.1
2018-Apr-18 23:00N 61°18' E 001°30'0 0.0 160 2.2 2.7 8.8 6.3
2018-Apr-18 22:00N 61°18' E 001°30'0 0.0 170 2.2 2.7 8.5 6.2
2018-Apr-18 21:00N 61°18' E 001°30'0 0.0 170 5.4 2.6 8.8 5.9
2018-Apr-18 20:00N 61°18' E 001°30'0 0.0 160 5.4 3.1 9.0 5.9
2018-Apr-18 19:00N 61°18' E 001°30'0 0.0 170 5.4 2.9 9.0 5.8
2018-Apr-18 18:00N 61°18' E 001°30'0 0.0 170 2.2 2.7 9.0 5.5
2018-Apr-18 17:00N 61°18' E 001°30'0 0.0 180 2.2 2.6 9.0 5.6
2018-Apr-18 16:00N 61°18' E 001°30'0 0.0 180 5.4 2.8 9.1 5.7
2018-Apr-18 15:00N 61°18' E 001°30'0 0.0 180 2.2 2.8 9.4 5.7
2018-Apr-18 14:00N 61°18' E 001°30'0 0.0 190 5.4 3.0 9.3 5.9
2018-Apr-18 13:00N 61°18' E 001°30'0 0.0 190 5.4 2.9 9.1 5.8
2018-Apr-18 12:00N 61°18' E 001°30'0 0.0 180 2.2 2.9 9.2 5.6
2018-Apr-18 11:00N 61°18' E 001°30'0 0.0 190 2.2 2.8 9.7 5.8
2018-Apr-18 10:00N 61°18' E 001°30'0 0.0 200 5.4 3.010.3 6.0
2018-Apr-18 09:00N 61°18' E 001°30'0 0.0 190 2.2 3.0 9.4 5.5
2018-Apr-18 08:00N 61°18' E 001°30'0 0.0 210 5.4 3.0 9.8 6.0
2018-Apr-18 07:00N 61°18' E 001°30'0 0.0 190 2.2 3.2 9.1 5.9
2018-Apr-18 06:00N 61°18' E 001°30'0 0.0 180 2.2 2.9 8.7 6.1
2018-Apr-18 05:00N 61°18' E 001°30'0 0.0 180 2.2 2.9 8.1 5.8
2018-Apr-18 04:00N 61°18' E 001°30'0 0.0 210 2.2 3.1 7.8 5.7
2018-Apr-18 03:00N 61°18' E 001°30'0 0.0 210 2.2 3.2 7.8 5.8
2018-Apr-18 02:00N 61°18' E 001°30'0 0.0 190 2.2 3.2 7.7 5.6
2018-Apr-18 01:00N 61°18' E 001°30'0 0.0 190 2.2 3.2 7.7 5.6
2018-Apr-18 00:00N 61°18' E 001°30'0 0.0 180 2.2 3.2 7.7 5.7
2018-Apr-17 23:00N 61°18' E 001°30'0 0.0 180 2.2 3.4 7.8 5.7
2018-Apr-17 22:00N 61°18' E 001°30'0 0.0 180 2.2 3.4 7.9 5.8
2018-Apr-17 21:00N 61°18' E 001°30'2 2.7 180 2.2 3.2 7.9 5.8
2018-Apr-17 20:17N 61°19' E 001°33'2 6.7
2018-Apr-17 20:00N 61°18' E 001°30'2165.0 170 2.2 3.0 7.9 5.7
2018-Apr-17 19:59N 61°19' E 001°33'0 0.0
2018-Apr-17 19:29N 61°19' E 001°33'2 3.9
2018-Apr-17 19:00N 61°18' E 001°30'0 0.0 170 2.2 3.3 7.8 5.6
2018-Apr-17 18:00N 61°18' E 001°30'0 0.0 160 2.2 3.0 8.0 5.7
2018-Apr-17 17:00N 61°18' E 001°30'0 0.0 160 2.2 3.0 8.0 5.7
2018-Apr-17 16:00N 61°18' E 001°30'0 0.0 160 2.2 2.8 7.9 5.6
2018-Apr-17 15:00N 61°18' E 001°30'0 0.0 160 2.2 2.9 7.9 5.5
2018-Apr-17 14:00N 61°18' E 001°30'0 0.0 150 2.2 2.6 7.8 5.5
2018-Apr-17 13:00N 61°18' E 001°30'0 0.0 150 2.2 2.3 8.0 5.4
2018-Apr-17 12:00N 61°18' E 001°30'0 0.0 150 2.2 2.2 8.0 5.1
2018-Apr-17 11:00N 61°18' E 001°30'0 0.0 150 2.2 1.9 8.1 5.1
2018-Apr-17 10:00N 61°18' E 001°30'0 0.0 140 5.4 1.8 8.3 5.2
2018-Apr-17 09:00N 61°18' E 001°30'0 0.0 140 5.4 1.8 8.0 5.6
2018-Apr-17 08:00N 61°18' E 001°30'0 0.0 140 2.2 1.7 7.5 5.4
2018-Apr-17 07:00N 61°18' E 001°30'0 0.0 150 5.4 1.7 7.2 5.2
2018-Apr-17 06:00N 61°18' E 001°30'0 0.0 150 2.2 1.6 7.0 5.1
2018-Apr-17 05:00N 61°18' E 001°30'0 0.0 150 2.2 1.6 7.1 5.2
2018-Apr-17 04:00N 61°18' E 001°30'0 0.0 160 2.2 1.6 7.4 5.4
2018-Apr-17 03:00N 61°18' E 001°30'0 0.0 160 1.1 1.6 7.3 5.4
2018-Apr-17 02:00N 61°18' E 001°30'0 0.0 150 1.1 1.6 7.6 5.4
2018-Apr-17 01:00N 61°18' E 001°30'0 0.0 160 2.2 1.6 8.1 6.0
2018-Apr-17 00:00N 61°18' E 001°30'0 0.0 160 2.2 1.4 8.4 6.3
2018-Apr-16 23:00N 61°18' E 001°30'0 0.0 150 2.2 1.4 8.3 6.1
2018-Apr-16 22:00N 61°18' E 001°30'0 0.0 150 1.1 1.4 8.2 6.2
2018-Apr-16 21:00N 61°18' E 001°30'0 0.0 150 1.1 1.5 8.1 5.9
2018-Apr-16 20:00N 61°18' E 001°30'0 0.0 150 1.1 1.4 8.1 5.6
2018-Apr-16 19:00N 61°18' E 001°30'0 0.0 140 2.2 1.2 8.6 5.2
2018-Apr-16 18:00N 61°18' E 001°30'0 0.0 140 5.4 1.3 8.7 4.9
2018-Apr-16 17:00N 61°18' E 001°30'0 0.0 140 2.2 1.3 8.9 5.1
2018-Apr-16 16:00N 61°18' E 001°30'0 0.0 140 2.2 1.3 8.4 5.2
2018-Apr-16 15:00N 61°18' E 001°30'0 0.0 150 5.4 1.2 8.4 4.9
2018-Apr-16 14:00N 61°18' E 001°30'0 0.0 150 5.4 1.1 9.0 5.0
2018-Apr-16 13:00N 61°18' E 001°30'0 0.0 160 10.8 1.210.1 4.8
2018-Apr-16 12:00N 61°18' E 001°30'0 0.0 160 10.8 1.1 9.4 4.3
2018-Apr-16 11:00N 61°18' E 001°30'0 0.0 160 5.4 0.9 9.6 4.4
2018-Apr-16 10:00N 61°18' E 001°30'0 0.0 170 5.4 0.9 8.5 4.5
2018-Apr-16 09:00N 61°18' E 001°30'0 0.0 170 2.2 0.8 7.8 4.5
2018-Apr-16 08:00N 61°18' E 001°30'0 0.0 160 1.1 0.8 9.0 6.3
2018-Apr-16 07:00N 61°18' E 001°30'0 0.0 170 2.2 0.7 9.1 5.7
2018-Apr-16 06:00N 61°18' E 001°30'0 0.0 170 5.4 0.7 9.1 5.9
2018-Apr-16 05:00N 61°18' E 001°30'0 0.0 180 5.4 0.7 8.5 4.8
2018-Apr-16 04:00N 61°18' E 001°30'0 0.0 170 5.4 0.7 9.6 4.6
2018-Apr-16 03:00N 61°18' E 001°30'0 0.0 150 2.2 0.7 9.6 4.5
2018-Apr-16 02:00N 61°18' E 001°30'0 0.0 160 5.4 0.7 9.2 5.2
2018-Apr-16 01:00N 61°18' E 001°30'0 0.0 160 5.4 0.7 9.2 5.9
2018-Apr-16 00:00N 61°18' E 001°30'0 0.0 170 10.8 0.7 9.1 5.8
2018-Apr-15 23:00N 61°18' E 001°30'0 0.0 160 10.8 0.7 9.3 6.1
2018-Apr-15 22:00N 61°18' E 001°30'0 0.0 160 10.8 0.7 9.7 5.9
2018-Apr-15 21:00N 61°18' E 001°30'0 0.0 140 10.8 0.7 9.8 5.7
2018-Apr-15 20:00N 61°18' E 001°30'0 0.0 160 10.8 0.8 9.4 5.6
2018-Apr-15 19:00N 61°18' E 001°30'0 0.0 090 10.8 0.8 9.3 5.7
2018-Apr-15 18:00N 61°18' E 001°30'0 0.0 100 10.8 0.8 8.1 5.5
2018-Apr-15 17:00N 61°18' E 001°30'0 0.0 080 10.8 0.8 8.1 5.2
2018-Apr-15 16:00N 61°18' E 001°30'0 0.0 080 10.8 0.9 8.3 4.8
2018-Apr-15 15:00N 61°18' E 001°30'0 0.0 070 10.8 0.8 8.6 4.5
2018-Apr-15 14:00N 61°18' E 001°30'0 0.0 060 10.8 0.9 8.7 4.4
2018-Apr-15 13:00N 61°18' E 001°30'0 0.0 10.8
2018-Apr-15 12:00N 61°18' E 001°30'0 0.0 070 10.8 0.9 9.8 3.8
2018-Apr-15 11:00N 61°18' E 001°30'0 0.0 100 10.8 0.9 9.9 5.3
2018-Apr-15 10:00N 61°18' E 001°30'0 0.0 060 5.4 1.0 7.8 5.0
2018-Apr-15 09:00N 61°18' E 001°30'0 0.0 040 5.4 1.0 7.7 5.2
2018-Apr-15 08:00N 61°18' E 001°30'0 0.0 040 5.4 1.1 7.8 5.1
2018-Apr-15 07:00N 61°18' E 001°30'0 0.0 040 5.4 1.0 7.5 4.9
2018-Apr-15 06:00N 61°18' E 001°30'0 0.0 070 5.4 1.0 7.6 4.6
2018-Apr-15 05:00N 61°18' E 001°30'0 0.0 170 5.4 1.0 7.9 4.0
2018-Apr-15 04:00N 61°18' E 001°30'0 0.0 200 10.8 1.0 8.7 4.4
2018-Apr-15 03:00N 61°18' E 001°30'0 0.0 160 10.8 1.0 8.5 4.1
2018-Apr-15 02:00N 61°18' E 001°30'0 0.0 170 10.8 1.0 8.7 4.2
2018-Apr-15 01:00N 61°18' E 001°30'0 0.0 170 10.8 1.0 8.6 4.4
2018-Apr-15 00:00N 61°18' E 001°30'0 0.0 170 5.4 1.2 8.7 4.1
2018-Apr-14 23:00N 61°18' E 001°30'0 0.0 160 10.8 1.1 8.6 4.2
2018-Apr-14 22:00N 61°18' E 001°30'0 0.0 160 5.4 1.1 8.9 3.8
2018-Apr-14 21:00N 61°18' E 001°30'0 0.0 170 10.8 1.2 9.0 3.7
2018-Apr-14 20:00N 61°18' E 001°30'0 0.0 160 5.4 1.3 9.7 3.7
2018-Apr-14 19:00N 61°18' E 001°30'0 0.0 150 5.4 1.2 9.7 3.8
2018-Apr-14 18:00N 61°18' E 001°30'0 0.0 160 5.4 1.210.0 3.4
2018-Apr-14 17:00N 61°18' E 001°30'0 0.0 160 10.8 1.1 9.7 3.7
2018-Apr-14 16:00N 61°18' E 001°30'0 0.0 160 10.8 1.0 9.8 3.6
2018-Apr-14 15:00N 61°18' E 001°30'0 0.0 180 5.4 1.1 9.4 3.5
2018-Apr-14 14:00N 61°18' E 001°30'0 0.0 170 10.8 1.210.3 4.0
2018-Apr-14 13:00N 61°18' E 001°30'0 0.0 170 10.8 1.210.6 5.4
2018-Apr-14 12:00N 61°18' E 001°30'0 0.0 180 10.8 1.210.4 6.6
2018-Apr-14 11:00N 61°18' E 001°30'0 0.0 180 5.4 1.3 9.8 6.4
2018-Apr-14 10:00N 61°18' E 001°30'0 0.0 130 5.4 1.310.0 6.4
2018-Apr-14 09:00N 61°18' E 001°30'0 0.0 120 10.8 1.410.2 7.0
2018-Apr-14 08:00N 61°18' E 001°30'0 0.0 140 5.4 1.310.1 7.3
2018-Apr-14 07:00N 61°18' E 001°30'0 0.0 140 5.4 1.3 9.5 7.0
2018-Apr-14 06:00N 61°18' E 001°30'0 0.0 150 2.2 1.3 9.2 7.0
2018-Apr-14 05:00N 61°18' E 001°30'0 0.0 110 5.4 1.3 8.9 6.6
2018-Apr-14 04:00N 61°18' E 001°30'0 0.0 130 5.4 1.4 9.3 6.6
2018-Apr-14 03:00N 61°18' E 001°30'0 0.0 140 5.4 1.4 9.7 6.6
2018-Apr-14 02:00N 61°18' E 001°30'0 0.0 150 2.2 1.4 9.2 6.3
2018-Apr-14 01:00N 61°18' E 001°30'0 0.0 160 2.2 1.5 9.3 5.9
2018-Apr-14 00:00N 61°18' E 001°30'0 0.0 130 10.8 1.5 9.6 5.9
2018-Apr-13 23:00N 61°18' E 001°30'0 0.0 130 10.8 1.6 9.3 5.7
2018-Apr-13 22:00N 61°18' E 001°30'0 0.0 140 5.4 1.8 8.9 4.8
2018-Apr-13 21:00N 61°18' E 001°30'0 0.0 120 10.8 1.7 8.9 4.0
2018-Apr-13 20:00N 61°18' E 001°30'0 0.0 090 10.8 1.7 8.0 2.9
2018-Apr-13 19:00N 61°18' E 001°30'0 0.0 090 10.8 1.8 7.9 2.7
2018-Apr-13 18:00N 61°18' E 001°30'0 0.0 080 10.8 1.9 8.0 2.1
2018-Apr-13 17:00N 61°18' E 001°30'0 0.0 080 10.8 1.7 8.1 2.0
2018-Apr-13 16:00N 61°18' E 001°30'0 0.0 070 10.8 1.7 8.1 1.8
2018-Apr-13 15:00N 61°18' E 001°30'0 0.0 070 10.8 2.0 8.2 1.7
2018-Apr-13 14:00N 61°18' E 001°30'0 0.0 080 10.8 1.8 8.2 1.3
2018-Apr-13 13:00N 61°18' E 001°30'0 0.0 080 10.8 1.8 8.0 1.4
2018-Apr-13 12:00N 61°18' E 001°30'0 0.0 080 10.8 1.8 7.9 1.6
2018-Apr-13 11:00N 61°18' E 001°30'0 0.0 080 10.8 1.8 8.0 2.1
2018-Apr-13 10:00N 61°18' E 001°30'0 0.0 080 10.8 1.6 7.6 2.4
2018-Apr-13 09:00N 61°18' E 001°30'0 0.0 080 10.8 1.6 7.8 2.7
2018-Apr-13 08:00N 61°18' E 001°30'0 0.0 080 10.8 1.9 7.9 2.7
2018-Apr-13 07:00N 61°18' E 001°30'0 0.0 080 10.8 1.9 7.5 2.9
2018-Apr-13 06:00N 61°18' E 001°30'0 0.0 080 10.8 1.6 7.3 2.7
2018-Apr-13 05:00N 61°18' E 001°30'0 0.0 080 10.8 1.8 7.0 3.0
2018-Apr-13 04:00N 61°18' E 001°30'0 0.0 080 10.8 1.9 7.3 1.9
2018-Apr-13 03:00N 61°18' E 001°30'0 0.0 070 10.8 1.8 7.3 1.3
2018-Apr-13 02:00N 61°18' E 001°30'0 0.0 070 10.8 1.9 7.2 1.8
2018-Apr-13 01:00N 61°18' E 001°30'0 0.0 080 10.8 2.1 7.2 1.8
2018-Apr-13 00:00N 61°18' E 001°30'0 0.0 070 10.8 2.1 7.1 1.4
2018-Apr-12 23:00N 61°18' E 001°30'0 0.0 070 10.8 1.9 7.1 1.2
2018-Apr-12 22:00N 61°18' E 001°30'0 0.0
2018-Apr-12 21:00N 61°18' E 001°30'0 0.0 070 10.8 1.9 7.3 1.1
2018-Apr-12 20:00N 61°18' E 001°30'0 0.0 080 10.8 1.7 7.4 0.9
2018-Apr-12 19:00N 61°18' E 001°30'0 0.0 070 10.8 1.7 7.5 1.9
2018-Apr-12 18:00N 61°18' E 001°30'0 0.0 080 10.8 1.7 7.7 1.6
2018-Apr-12 17:00N 61°18' E 001°30'0 0.0 060 10.8 1.5 7.9 2.3
2018-Apr-12 16:00N 61°18' E 001°30'0 0.0 090 10.8 1.4 8.0 3.4
2018-Apr-12 15:00N 61°18' E 001°30'0 0.0 070 10.8 1.2 7.8 3.4
2018-Apr-12 14:00N 61°18' E 001°30'0 0.0 080 10.8 1.0 7.9 2.9
2018-Apr-12 13:00N 61°18' E 001°30'0 0.0 090 10.8 1.0 8.8 1.7
2018-Apr-12 12:00N 61°18' E 001°30'0 0.0 080 10.8 1.0 8.0 2.6
2018-Apr-12 11:00N 61°18' E 001°30'0 0.0 150 10.8 1.010.1 3.3
2018-Apr-12 10:00N 61°18' E 001°30'0 0.0 190 10.8 1.0 9.2 3.0
2018-Apr-12 09:00N 61°18' E 001°30'0 0.0 180 10.8 1.1 9.3 3.0
2018-Apr-12 08:00N 61°18' E 001°30'0 0.0 160 10.8 1.1 9.9 3.5
2018-Apr-12 07:00N 61°18' E 001°30'0 0.0 150 10.8 1.1 9.8 3.9
2018-Apr-12 06:00N 61°18' E 001°30'0 0.0 160 10.8 1.0 8.4 4.0
2018-Apr-12 05:00N 61°18' E 001°30'0 0.0 180 10.8 1.1 6.9 3.4
2018-Apr-12 04:00N 61°18' E 001°30'0 0.0 200 10.8 1.2 6.2 3.1
2018-Apr-12 03:00N 61°18' E 001°30'0 0.0 180 10.8 1.2 6.3 2.7
2018-Apr-12 02:00N 61°18' E 001°30'0 0.0 160 10.8 1.2 6.8 2.8
2018-Apr-12 01:00N 61°18' E 001°30'0 0.0 120 10.8 1.2 6.7 2.5
2018-Apr-12 00:00N 61°18' E 001°30'0 0.0 100 10.8 1.2 6.3 2.3
2018-Apr-11 23:00N 61°18' E 001°30'0 0.0 090 10.8 1.3 6.3 2.0
2018-Apr-11 22:00N 61°18' E 001°30'0 0.0 080 10.8 1.4 6.4 1.6
2018-Apr-11 21:00N 61°18' E 001°30'0 0.0 080 10.8 1.3 6.4 1.4
2018-Apr-11 20:00N 61°18' E 001°30'0 0.0 080 10.8 1.5 6.4 1.6
2018-Apr-11 19:00N 61°18' E 001°30'0 0.0 060 10.8 1.5 6.7 2.1
2018-Apr-11 18:00N 61°18' E 001°30'0 0.0 070 10.8 1.4 6.9 1.6
2018-Apr-11 17:00N 61°18' E 001°30'0 0.0 080 10.8 1.4 7.0 0.4
2018-Apr-11 16:00N 61°18' E 001°30'0 0.0 080 10.8 1.4 7.0-0.6
2018-Apr-11 15:00N 61°18' E 001°30'0 0.0 070 10.8 1.7 7.1-1.1
2018-Apr-11 14:00N 61°18' E 001°30'0 0.0 100 10.8 1.5 7.4 0.3
2018-Apr-11 13:00N 61°18' E 001°30'0 0.0 090 10.8 1.5 7.8 0.7
2018-Apr-11 12:00N 61°18' E 001°30'0 0.0 090 10.8 1.7 7.4 0.9
2018-Apr-11 11:00N 61°18' E 001°30'0 0.0 080 10.8 1.7 7.4 1.7
2018-Apr-11 10:00N 61°18' E 001°30'0 0.0 080 10.8 1.9 7.0 3.3
2018-Apr-11 09:00N 61°18' E 001°30'0 0.0 080 10.8 1.7 6.6 3.6
2018-Apr-11 08:00N 61°18' E 001°30'0 0.0 080 10.8 1.8 6.6 3.5
2018-Apr-11 07:00N 61°18' E 001°30'0 0.0 080 10.8 1.9 6.6 3.4
2018-Apr-11 06:00N 61°18' E 001°30'0 0.0 090 10.8 2.1 6.6 3.3
2018-Apr-11 05:00N 61°18' E 001°30'0 0.0 090 10.8 2.1 6.3 3.0
2018-Apr-11 04:00N 61°18' E 001°30'0 0.0 090 10.8 1.9 6.1 2.8
2018-Apr-11 03:00N 61°18' E 001°30'0 0.0 090 10.8 2.0 6.1 2.6
2018-Apr-11 02:00N 61°18' E 001°30'0 0.0 090 10.8 1.9 6.0 2.1
2018-Apr-11 01:00N 61°18' E 001°30'0 0.0 100 10.8 1.8 6.1 1.7
2018-Apr-11 00:00N 61°18' E 001°30'0 0.0 120 10.8 1.8 6.2 1.7
2018-Apr-10 23:00N 61°18' E 001°30'0 0.0 130 10.8 1.9 6.0 1.5
2018-Apr-10 22:00N 61°18' E 001°30'0 0.0 120 10.8 2.1 6.0 1.6
2018-Apr-10 21:00N 61°18' E 001°30'0 0.0 080 10.8 1.8 5.8 1.4
2018-Apr-10 20:00N 61°18' E 001°30'0 0.0 140 10.8 1.6 5.9 1.6
2018-Apr-10 19:00N 61°18' E 001°30'0 0.0 170 10.8 1.6 6.3 1.5
2018-Apr-10 18:00N 61°18' E 001°30'0 0.0 180 10.8 1.6 6.5 1.5
2018-Apr-10 17:00N 61°18' E 001°30'0 0.0 190 10.8 1.6 6.7 2.0
2018-Apr-10 16:00N 61°18' E 001°30'0 0.0 190 10.8 1.5 6.9 2.7
2018-Apr-10 15:00N 61°18' E 001°30'0 0.0 180 10.8 1.5 6.7 3.0
2018-Apr-10 14:00N 61°18' E 001°30'0 0.0 200 5.4 1.4 6.7 3.0
2018-Apr-10 13:00N 61°18' E 001°30'0 0.0 190 10.8 1.5 7.3 2.5
2018-Apr-10 12:00N 61°18' E 001°30'0 0.0 180 10.8 1.6 7.4 2.0
2018-Apr-10 11:00N 61°18' E 001°30'0 0.0 190 10.8 1.6 7.6 2.0
2018-Apr-10 10:00N 61°18' E 001°30'0 0.0 180 10.8 1.8 7.3 2.4
2018-Apr-10 09:00N 61°18' E 001°30'   180 10.8 1.8 7.2 3.1

Dump ship's entire track history